23 a 30/3 - Perturbación de lento desplazamiento con CG al final, abundante PP localmente C y N

Avatar de Usuario
Diecha
Mensajes: 15104
Registrado: Jue Ago 25, 2011 9:31 pm
Ubicación: Lomas de Zamora

Re: 23 a 30/3 - Perturbación de lento desplazamiento con CG al final, abundante PP localmente C y N

Mensaje por Diecha » Sab Mar 27, 2021 8:41 pm

Imagen

Imagen
Spoiler
Mostrar
Imagen
Imagen
Imagen
Imagen
Imagen
Imagen
Imagen
Imagen
Imagen
Imagen
Imagen
Imagen
Imagen
Imagen

Avatar de Usuario
Ale de Castelar
Mensajes: 28411
Registrado: Sab Mar 03, 2012 12:25 pm
Ubicación: Caballito

Re: 23 a 30/3 - Perturbación de lento desplazamiento con CG al final, abundante PP localmente C y N

Mensaje por Ale de Castelar » Sab Mar 27, 2021 10:39 pm

Parana


Avatar de Usuario
Diecha
Mensajes: 15104
Registrado: Jue Ago 25, 2011 9:31 pm
Ubicación: Lomas de Zamora

Re: 23 a 30/3 - Perturbación de lento desplazamiento con CG al final, abundante PP localmente C y N

Mensaje por Diecha » Sab Mar 27, 2021 11:00 pm


Avatar de Usuario
Ale de Castelar
Mensajes: 28411
Registrado: Sab Mar 03, 2012 12:25 pm
Ubicación: Caballito

Re: 23 a 30/3 - Perturbación de lento desplazamiento con CG al final, abundante PP localmente C y N

Mensaje por Ale de Castelar » Sab Mar 27, 2021 11:01 pm

Abra Pampa


Avatar de Usuario
Diecha
Mensajes: 15104
Registrado: Jue Ago 25, 2011 9:31 pm
Ubicación: Lomas de Zamora

Re: 23 a 30/3 - Perturbación de lento desplazamiento con CG al final, abundante PP localmente C y N

Mensaje por Diecha » Sab Mar 27, 2021 11:07 pm



Imagen

- Tandil 23 hs: SAZT 280200Z 14015KT 9999 OVC004 15/14 Q1015
- Mar del Plata 23 hs: SAZM 280200Z 14015KT 4000 DZ BR BKN009 OVC030 17/16 Q1016

Imagen

Avatar de Usuario
Diecha
Mensajes: 15104
Registrado: Jue Ago 25, 2011 9:31 pm
Ubicación: Lomas de Zamora

Re: 23 a 30/3 - Perturbación de lento desplazamiento con CG al final, abundante PP localmente C y N

Mensaje por Diecha » Dom Mar 28, 2021 1:07 am



Imagen

- Tandil 01 hs: SAZT 280400Z 14014KT 9999 OVC005 16/14 Q1014
- Mar del Plata 01 hs: SAZM 280400Z 14017KT 5000 BR SCT011 BKN030 BKN100 17/16 Q1015 REDZ

Imagen

Avatar de Usuario
Ale de Castelar
Mensajes: 28411
Registrado: Sab Mar 03, 2012 12:25 pm
Ubicación: Caballito

Re: 23 a 30/3 - Perturbación de lento desplazamiento con CG al final, abundante PP localmente C y N

Mensaje por Ale de Castelar » Dom Mar 28, 2021 9:42 am

Chascomus ayer con tornado


Avatar de Usuario
Ernest
Mensajes: 12145
Registrado: Vie Jul 17, 2009 10:54 pm
Ubicación: Balvanera, CABA

Re: 23 a 30/3 - Perturbación de lento desplazamiento con CG al final, abundante PP localmente C y N

Mensaje por Ernest » Dom Mar 28, 2021 10:30 am

Ranking de Ogimet en 24 horas hasta las 9 de hoy (PP >= 10 mm)

1 Posadas Aero. (Argentina) 70.0 mm
2 Formosa Aerodrome (Argentina) 51.0 mm
3 Presidencia Roque Saenz Pena Aero (Argentina) 33.0 mm
4 Corrientes Aero. (Argentina) 29.0 mm
5 Las Flores Aerodrome (Argentina) 25.0 mm
6 Resistencia Aero. (Argentina) 22.0 mm
7 Bolivar Aerodrome (Argentina) 17.0 mm
8 Tandil Aerodrome (Argentina) 12.0 mm
9 B.de Irigoyen Aero (Argentina) 11.0 mm
10 Benito Juarez (Argentina) 10.0 mm
Did you want to talk about the weather, or were you just making chitchat?

Twitter: @ErnestoAtmoII

Avatar de Usuario
Ale de Castelar
Mensajes: 28411
Registrado: Sab Mar 03, 2012 12:25 pm
Ubicación: Caballito

Re: 23 a 30/3 - Perturbación de lento desplazamiento con CG al final, abundante PP localmente C y N

Mensaje por Ale de Castelar » Dom Mar 28, 2021 11:45 am

Abra Pampa


Avatar de Usuario
HernanCba
Mensajes: 3335
Registrado: Sab Mar 02, 2013 1:21 am
Ubicación: Cosquín, Valle de Punilla, Córdoba
Contactar:

Re: 23 a 30/3 - Perturbación de lento desplazamiento con CG al final, abundante PP localmente C y N

Mensaje por HernanCba » Dom Mar 28, 2021 12:32 pm

Mínima más baja del año en Córdoba: 7.1°C

En la EMA local 3.6°C

Lindas mínimas para marzo:
Villa Reynolds 1.7°C
Santa Rosa de Conlara 1.8°C
Villa Dolores 4.0°C
San Luis 5.4°C



Responder